sensor_id;sensor_type;location;lat;lon;timestamp;pressure;altitude;pressure_sealevel;temperature
74043;BMP280;62384;53.600;10.040;2023-03-31T00:01:23;52511.75;;;11.28
74043;BMP280;62384;53.600;10.040;2023-03-31T00:03:49;52511.38;;;11.24
74043;BMP280;62384;53.600;10.040;2023-03-31T00:06:14;52509.09;;;11.25
74043;BMP280;62384;53.600;10.040;2023-03-31T00:08:44;52549.09;;;11.25
74043;BMP280;62384;53.600;10.040;2023-03-31T00:11:09;52547.25;;;11.19
74043;BMP280;62384;53.600;10.040;2023-03-31T00:13:36;52514.81;;;11.11
74043;BMP280;62384;53.600;10.040;2023-03-31T00:16:04;52488.06;;;10.93
74043;BMP280;62384;53.600;10.040;2023-03-31T00:18:30;52582.00;;;11.16
74043;BMP280;62384;53.600;10.040;2023-03-31T00:21:11;52560.84;;;11.20
74043;BMP280;62384;53.600;10.040;2023-03-31T00:23:50;52492.16;;;11.16
74043;BMP280;62384;53.600;10.040;2023-03-31T00:26:15;52491.03;;;11.15
74043;BMP280;62384;53.600;10.040;2023-03-31T00:28:43;52437.88;;;10.97
74043;BMP280;62384;53.600;10.040;2023-03-31T00:31:08;52454.84;;;11.05
74043;BMP280;62384;53.600;10.040;2023-03-31T00:33:34;52511.41;;;11.10
74043;BMP280;62384;53.600;10.040;2023-03-31T00:35:59;52631.44;;;11.15
74043;BMP280;62384;53.600;10.040;2023-03-31T00:38:27;52879.81;;;11.12
74043;BMP280;62384;53.600;10.040;2023-03-31T00:40:57;52933.38;;;11.02
74043;BMP280;62384;53.600;10.040;2023-03-31T00:43:31;52963.25;;;11.14
74043;BMP280;62384;53.600;10.040;2023-03-31T00:46:25;52954.16;;;11.09
74043;BMP280;62384;53.600;10.040;2023-03-31T00:48:54;53190.47;;;11.07
74043;BMP280;62384;53.600;10.040;2023-03-31T00:51:23;53173.13;;;11.08
74043;BMP280;62384;53.600;10.040;2023-03-31T00:53:52;53225.94;;;11.05
74043;BMP280;62384;53.600;10.040;2023-03-31T00:56:22;53043.25;;;11.08
74043;BMP280;62384;53.600;10.040;2023-03-31T00:58:51;53131.91;;;10.99
74043;BMP280;62384;53.600;10.040;2023-03-31T01:01:20;53259.94;;;11.08
74043;BMP280;62384;53.600;10.040;2023-03-31T01:03:53;53566.16;;;11.11
74043;BMP280;62384;53.600;10.040;2023-03-31T01:06:21;53464.84;;;11.03
74043;BMP280;62384;53.600;10.040;2023-03-31T01:08:48;53591.03;;;11.09
74043;BMP280;62384;53.600;10.040;2023-03-31T01:11:18;53619.69;;;11.05
74043;BMP280;62384;53.600;10.040;2023-03-31T01:13:46;53754.47;;;11.05
74043;BMP280;62384;53.600;10.040;2023-03-31T01:16:15;53628.00;;;11.05
74043;BMP280;62384;53.600;10.040;2023-03-31T01:18:44;54252.31;;;11.13
74043;BMP280;62384;53.600;10.040;2023-03-31T01:36:00;54483.50;;;11.01
74043;BMP280;62384;53.600;10.040;2023-03-31T01:39:14;55101.91;;;11.24
74043;BMP280;62384;53.600;10.040;2023-03-31T01:41:52;55385.72;;;11.25
74043;BMP280;62384;53.600;10.040;2023-03-31T01:44:47;55292.06;;;11.27
74043;BMP280;62384;53.600;10.040;2023-03-31T01:47:30;55764.47;;;11.19
74043;BMP280;62384;53.600;10.040;2023-03-31T01:50:04;55472.38;;;11.11
74043;BMP280;62384;53.600;10.040;2023-03-31T01:55:35;55168.00;;;11.14
74043;BMP280;62384;53.600;10.040;2023-03-31T01:58:04;55282.41;;;11.21
74043;BMP280;62384;53.600;10.040;2023-03-31T02:00:33;55602.63;;;11.25
74043;BMP280;62384;53.600;10.040;2023-03-31T02:03:12;55252.25;;;11.23
74043;BMP280;62384;53.600;10.040;2023-03-31T02:06:00;55176.88;;;11.18
74043;BMP280;62384;53.600;10.040;2023-03-31T02:08:47;56355.28;;;11.26
74043;BMP280;62384;53.600;10.040;2023-03-31T02:11:14;55976.50;;;11.19
74043;BMP280;62384;53.600;10.040;2023-03-31T02:13:41;56213.19;;;11.27
74043;BMP280;62384;53.600;10.040;2023-03-31T02:16:15;56451.78;;;11.28
74043;BMP280;62384;53.600;10.040;2023-03-31T02:18:44;56564.16;;;11.29
74043;BMP280;62384;53.600;10.040;2023-03-31T02:21:13;56495.94;;;11.27
74043;BMP280;62384;53.600;10.040;2023-03-31T02:23:41;56335.53;;;11.25
74043;BMP280;62384;53.600;10.040;2023-03-31T02:26:20;56352.03;;;11.22
74043;BMP280;62384;53.600;10.040;2023-03-31T02:28:48;56063.63;;;11.16
74043;BMP280;62384;53.600;10.040;2023-03-31T02:34:10;55571.44;;;11.12
74043;BMP280;62384;53.600;10.040;2023-03-31T02:36:38;55698.81;;;11.13
74043;BMP280;62384;53.600;10.040;2023-03-31T02:39:07;55529.69;;;11.16
74043;BMP280;62384;53.600;10.040;2023-03-31T02:41:33;55728.31;;;11.13
74043;BMP280;62384;53.600;10.040;2023-03-31T02:43:59;55588.13;;;11.13
74043;BMP280;62384;53.600;10.040;2023-03-31T02:46:26;55462.31;;;11.05
74043;BMP280;62384;53.600;10.040;2023-03-31T02:48:54;55616.00;;;11.12
74043;BMP280;62384;53.600;10.040;2023-03-31T03:05:59;55339.03;;;11.03
74043;BMP280;62384;53.600;10.040;2023-03-31T03:08:54;55254.72;;;11.10
74043;BMP280;62384;53.600;10.040;2023-03-31T03:11:25;55422.00;;;11.07
74043;BMP280;62384;53.600;10.040;2023-03-31T03:16:38;55116.16;;;11.02
74043;BMP280;62384;53.600;10.040;2023-03-31T03:19:06;54912.84;;;10.99
74043;BMP280;62384;53.600;10.040;2023-03-31T03:21:32;54684.41;;;11.01
74043;BMP280;62384;53.600;10.040;2023-03-31T03:23:57;54945.31;;;11.10
74043;BMP280;62384;53.600;10.040;2023-03-31T03:26:24;54994.00;;;11.08
74043;BMP280;62384;53.600;10.040;2023-03-31T03:28:54;54969.00;;;11.06
74043;BMP280;62384;53.600;10.040;2023-03-31T03:31:21;55081.78;;;11.12
74043;BMP280;62384;53.600;10.040;2023-03-31T03:33:48;55079.38;;;11.09
74043;BMP280;62384;53.600;10.040;2023-03-31T03:36:14;54904.50;;;11.08
74043;BMP280;62384;53.600;10.040;2023-03-31T03:38:42;54985.41;;;11.00
74043;BMP280;62384;53.600;10.040;2023-03-31T03:41:08;54667.16;;;10.92
74043;BMP280;62384;53.600;10.040;2023-03-31T03:43:34;54445.13;;;10.92
74043;BMP280;62384;53.600;10.040;2023-03-31T03:45:59;54580.53;;;11.00
74043;BMP280;62384;53.600;10.040;2023-03-31T03:48:25;54684.13;;;11.04
74043;BMP280;62384;53.600;10.040;2023-03-31T03:50:51;54944.81;;;11.06
74043;BMP280;62384;53.600;10.040;2023-03-31T03:53:17;54850.28;;;11.03
74043;BMP280;62384;53.600;10.040;2023-03-31T03:55:42;55099.38;;;11.07
74043;BMP280;62384;53.600;10.040;2023-03-31T03:58:09;55133.06;;;11.10
74043;BMP280;62384;53.600;10.040;2023-03-31T04:00:34;55023.59;;;11.12
74043;BMP280;62384;53.600;10.040;2023-03-31T04:03:01;55214.41;;;11.12
74043;BMP280;62384;53.600;10.040;2023-03-31T04:05:26;55130.56;;;11.13
74043;BMP280;62384;53.600;10.040;2023-03-31T04:07:51;55301.44;;;11.15
74043;BMP280;62384;53.600;10.040;2023-03-31T04:10:17;55502.19;;;11.18
74043;BMP280;62384;53.600;10.040;2023-03-31T04:12:42;55213.59;;;11.11
74043;BMP280;62384;53.600;10.040;2023-03-31T04:15:07;54793.16;;;11.11
74043;BMP280;62384;53.600;10.040;2023-03-31T04:17:33;54990.00;;;11.13
74043;BMP280;62384;53.600;10.040;2023-03-31T04:20:08;55337.81;;;11.18
74043;BMP280;62384;53.600;10.040;2023-03-31T04:22:36;55509.16;;;11.14
74043;BMP280;62384;53.600;10.040;2023-03-31T04:25:06;55526.25;;;11.15
74043;BMP280;62384;53.600;10.040;2023-03-31T04:27:39;55307.13;;;11.16
74043;BMP280;62384;53.600;10.040;2023-03-31T04:30:12;55304.97;;;11.10
74043;BMP280;62384;53.600;10.040;2023-03-31T04:32:46;55394.41;;;11.16
74043;BMP280;62384;53.600;10.040;2023-03-31T04:35:14;55513.97;;;11.20
74043;BMP280;62384;53.600;10.040;2023-03-31T04:37:42;55613.47;;;11.22
74043;BMP280;62384;53.600;10.040;2023-03-31T04:40:08;55840.97;;;11.22
74043;BMP280;62384;53.600;10.040;2023-03-31T04:42:34;55791.38;;;11.13
74043;BMP280;62384;53.600;10.040;2023-03-31T04:44:59;55897.16;;;11.19
74043;BMP280;62384;53.600;10.040;2023-03-31T04:47:25;55838.94;;;11.19
74043;BMP280;62384;53.600;10.040;2023-03-31T04:49:50;55853.38;;;11.21
74043;BMP280;62384;53.600;10.040;2023-03-31T04:52:15;55826.72;;;11.24
74043;BMP280;62384;53.600;10.040;2023-03-31T04:54:41;55800.25;;;11.24
74043;BMP280;62384;53.600;10.040;2023-03-31T04:57:06;56029.84;;;11.20
74043;BMP280;62384;53.600;10.040;2023-03-31T04:59:31;56174.72;;;11.29
74043;BMP280;62384;53.600;10.040;2023-03-31T05:01:57;56657.00;;;11.33
74043;BMP280;62384;53.600;10.040;2023-03-31T05:04:22;56387.03;;;11.33
74043;BMP280;62384;53.600;10.040;2023-03-31T05:06:47;56573.31;;;11.31
74043;BMP280;62384;53.600;10.040;2023-03-31T05:09:12;56449.53;;;11.35
74043;BMP280;62384;53.600;10.040;2023-03-31T05:11:38;56369.13;;;11.24
74043;BMP280;62384;53.600;10.040;2023-03-31T05:14:03;56745.53;;;11.28
74043;BMP280;62384;53.600;10.040;2023-03-31T05:16:28;56620.97;;;11.31
74043;BMP280;62384;53.600;10.040;2023-03-31T05:18:56;56847.56;;;11.33
74043;BMP280;62384;53.600;10.040;2023-03-31T05:21:25;56899.09;;;11.12
74043;BMP280;62384;53.600;10.040;2023-03-31T05:23:52;57170.38;;;11.36
74043;BMP280;62384;53.600;10.040;2023-03-31T05:26:18;57287.53;;;11.40
74043;BMP280;62384;53.600;10.040;2023-03-31T05:28:43;56851.28;;;11.37
74043;BMP280;62384;53.600;10.040;2023-03-31T05:31:09;56827.88;;;11.38
74043;BMP280;62384;53.600;10.040;2023-03-31T05:33:35;57026.75;;;11.32
74043;BMP280;62384;53.600;10.040;2023-03-31T05:36:05;57191.53;;;11.36
74043;BMP280;62384;53.600;10.040;2023-03-31T05:38:30;57300.66;;;11.33
74043;BMP280;62384;53.600;10.040;2023-03-31T05:40:56;57202.28;;;11.33
74043;BMP280;62384;53.600;10.040;2023-03-31T05:43:21;57348.91;;;11.31
74043;BMP280;62384;53.600;10.040;2023-03-31T05:45:46;57429.28;;;11.29
74043;BMP280;62384;53.600;10.040;2023-03-31T05:48:12;57426.13;;;11.22
74043;BMP280;62384;53.600;10.040;2023-03-31T05:50:37;57420.06;;;11.37
74043;BMP280;62384;53.600;10.040;2023-03-31T05:53:02;57800.41;;;11.39
74043;BMP280;62384;53.600;10.040;2023-03-31T05:55:28;57491.81;;;11.40
74043;BMP280;62384;53.600;10.040;2023-03-31T05:57:53;58265.56;;;11.41
74043;BMP280;62384;53.600;10.040;2023-03-31T06:00:19;58285.91;;;11.40
74043;BMP280;62384;53.600;10.040;2023-03-31T06:02:44;58105.38;;;11.39
74043;BMP280;62384;53.600;10.040;2023-03-31T06:05:11;57740.63;;;11.43
74043;BMP280;62384;53.600;10.040;2023-03-31T06:07:36;57959.16;;;11.42
74043;BMP280;62384;53.600;10.040;2023-03-31T06:10:01;58139.69;;;11.42
74043;BMP280;62384;53.600;10.040;2023-03-31T06:12:27;58210.25;;;11.44
74043;BMP280;62384;53.600;10.040;2023-03-31T06:14:55;58095.69;;;11.50
74043;BMP280;62384;53.600;10.040;2023-03-31T06:17:23;58549.97;;;11.52
74043;BMP280;62384;53.600;10.040;2023-03-31T06:19:49;58972.81;;;11.60
74043;BMP280;62384;53.600;10.040;2023-03-31T06:22:14;59409.25;;;11.59
74043;BMP280;62384;53.600;10.040;2023-03-31T06:28:02;59538.13;;;11.67
74043;BMP280;62384;53.600;10.040;2023-03-31T06:30:28;59549.16;;;11.67
74043;BMP280;62384;53.600;10.040;2023-03-31T06:32:53;60117.41;;;11.71
74043;BMP280;62384;53.600;10.040;2023-03-31T06:35:18;60034.75;;;11.71
74043;BMP280;62384;53.600;10.040;2023-03-31T06:37:43;59795.59;;;11.76
74043;BMP280;62384;53.600;10.040;2023-03-31T06:40:09;59904.75;;;11.77
74043;BMP280;62384;53.600;10.040;2023-03-31T06:42:34;60420.56;;;11.78
74043;BMP280;62384;53.600;10.040;2023-03-31T06:45:00;60271.56;;;11.84
74043;BMP280;62384;53.600;10.040;2023-03-31T06:47:25;60280.88;;;11.76
74043;BMP280;62384;53.600;10.040;2023-03-31T06:49:51;60223.41;;;11.77
74043;BMP280;62384;53.600;10.040;2023-03-31T06:52:16;60513.38;;;11.90
74043;BMP280;62384;53.600;10.040;2023-03-31T06:54:41;60891.91;;;11.95
74043;BMP280;62384;53.600;10.040;2023-03-31T06:57:06;61204.25;;;12.03
74043;BMP280;62384;53.600;10.040;2023-03-31T06:59:31;61377.69;;;12.07
74043;BMP280;62384;53.600;10.040;2023-03-31T07:01:57;61393.16;;;12.04
74043;BMP280;62384;53.600;10.040;2023-03-31T07:04:22;62027.28;;;12.09
74043;BMP280;62384;53.600;10.040;2023-03-31T07:06:47;61614.75;;;12.02
74043;BMP280;62384;53.600;10.040;2023-03-31T07:09:13;62021.97;;;12.09
74043;BMP280;62384;53.600;10.040;2023-03-31T07:11:38;62206.22;;;12.16
74043;BMP280;62384;53.600;10.040;2023-03-31T07:14:03;62039.53;;;12.23
74043;BMP280;62384;53.600;10.040;2023-03-31T07:16:29;61906.41;;;12.08
74043;BMP280;62384;53.600;10.040;2023-03-31T07:18:55;62453.38;;;12.23
74043;BMP280;62384;53.600;10.040;2023-03-31T07:21:23;62567.06;;;12.34
74043;BMP280;62384;53.600;10.040;2023-03-31T07:23:49;62800.97;;;12.37
74043;BMP280;62384;53.600;10.040;2023-03-31T07:26:14;62904.88;;;12.57
74043;BMP280;62384;53.600;10.040;2023-03-31T07:28:40;64230.34;;;12.67
74043;BMP280;62384;53.600;10.040;2023-03-31T07:31:13;64319.56;;;12.77
74043;BMP280;62384;53.600;10.040;2023-03-31T07:33:39;64193.44;;;12.73
74043;BMP280;62384;53.600;10.040;2023-03-31T07:36:05;63986.13;;;12.85
74043;BMP280;62384;53.600;10.040;2023-03-31T07:38:30;63745.97;;;12.78
74043;BMP280;62384;53.600;10.040;2023-03-31T07:40:56;63986.13;;;12.68
74043;BMP280;62384;53.600;10.040;2023-03-31T07:43:21;63787.00;;;12.65
74043;BMP280;62384;53.600;10.040;2023-03-31T07:45:46;64018.03;;;12.68
74043;BMP280;62384;53.600;10.040;2023-03-31T07:48:14;64036.50;;;12.65
74043;BMP280;62384;53.600;10.040;2023-03-31T07:50:40;63486.91;;;12.54
74043;BMP280;62384;53.600;10.040;2023-03-31T07:53:05;63301.50;;;12.49
74043;BMP280;62384;53.600;10.040;2023-03-31T07:55:31;63306.34;;;12.49
74043;BMP280;62384;53.600;10.040;2023-03-31T07:57:56;63199.19;;;12.39
74043;BMP280;62384;53.600;10.040;2023-03-31T08:00:21;61432.31;;;12.24
74043;BMP280;62384;53.600;10.040;2023-03-31T08:02:47;59668.09;;;12.19
74043;BMP280;62384;53.600;10.040;2023-03-31T08:05:14;58777.25;;;12.16
74043;BMP280;62384;53.600;10.040;2023-03-31T08:07:42;57760.03;;;12.02
74043;BMP280;62384;53.600;10.040;2023-03-31T08:10:12;56963.91;;;11.81
74043;BMP280;62384;53.600;10.040;2023-03-31T08:12:37;55895.09;;;11.76
74043;BMP280;62384;53.600;10.040;2023-03-31T08:15:03;55565.97;;;11.75
74043;BMP280;62384;53.600;10.040;2023-03-31T08:17:29;54952.38;;;11.59
74043;BMP280;62384;53.600;10.040;2023-03-31T08:19:54;54445.28;;;11.54
74043;BMP280;62384;53.600;10.040;2023-03-31T08:22:20;53890.88;;;11.52
74043;BMP280;62384;53.600;10.040;2023-03-31T08:24:47;53621.47;;;11.52
74043;BMP280;62384;53.600;10.040;2023-03-31T08:27:12;54051.19;;;11.57
74043;BMP280;62384;53.600;10.040;2023-03-31T08:29:37;53827.19;;;11.62
74043;BMP280;62384;53.600;10.040;2023-03-31T08:32:03;53977.78;;;11.72
74043;BMP280;62384;53.600;10.040;2023-03-31T08:34:28;53956.34;;;11.78
74043;BMP280;62384;53.600;10.040;2023-03-31T08:36:54;54748.47;;;11.79
74043;BMP280;62384;53.600;10.040;2023-03-31T08:39:19;54852.38;;;11.77
74043;BMP280;62384;53.600;10.040;2023-03-31T08:42:01;54683.19;;;11.84
74043;BMP280;62384;53.600;10.040;2023-03-31T08:44:57;54578.28;;;11.78
74043;BMP280;62384;53.600;10.040;2023-03-31T08:47:25;54973.38;;;11.76
74043;BMP280;62384;53.600;10.040;2023-03-31T08:49:56;55326.22;;;11.67
74043;BMP280;62384;53.600;10.040;2023-03-31T08:52:26;55091.44;;;11.68
74043;BMP280;62384;53.600;10.040;2023-03-31T08:54:58;55239.78;;;11.61
74043;BMP280;62384;53.600;10.040;2023-03-31T08:57:32;54551.44;;;11.64
74043;BMP280;62384;53.600;10.040;2023-03-31T09:00:00;54500.66;;;11.60
74043;BMP280;62384;53.600;10.040;2023-03-31T09:03:10;54534.94;;;11.43
74043;BMP280;62384;53.600;10.040;2023-03-31T09:06:00;54438.41;;;11.65
74043;BMP280;62384;53.600;10.040;2023-03-31T09:08:37;54295.16;;;11.65
74043;BMP280;62384;53.600;10.040;2023-03-31T09:16:23;53586.41;;;11.58
74043;BMP280;62384;53.600;10.040;2023-03-31T09:18:52;53884.69;;;11.43
74043;BMP280;62384;53.600;10.040;2023-03-31T09:21:26;53605.53;;;11.48
74043;BMP280;62384;53.600;10.040;2023-03-31T09:24:09;53483.56;;;11.52
74043;BMP280;62384;53.600;10.040;2023-03-31T09:26:41;53204.03;;;11.56
74043;BMP280;62384;53.600;10.040;2023-03-31T09:29:21;53290.16;;;11.55
74043;BMP280;62384;53.600;10.040;2023-03-31T09:31:49;52415.28;;;11.59
74043;BMP280;62384;53.600;10.040;2023-03-31T09:34:26;53567.66;;;11.68
74043;BMP280;62384;53.600;10.040;2023-03-31T09:36:52;53565.16;;;11.82
74043;BMP280;62384;53.600;10.040;2023-03-31T09:39:18;53770.91;;;11.88
74043;BMP280;62384;53.600;10.040;2023-03-31T09:41:45;54266.53;;;11.86
74043;BMP280;62384;53.600;10.040;2023-03-31T09:47:05;54445.94;;;11.78
74043;BMP280;62384;53.600;10.040;2023-03-31T09:49:34;54615.34;;;12.05
74043;BMP280;62384;53.600;10.040;2023-03-31T09:52:15;54452.06;;;12.10
74043;BMP280;62384;53.600;10.040;2023-03-31T09:54:49;55048.06;;;12.13
74043;BMP280;62384;53.600;10.040;2023-03-31T09:57:37;55087.00;;;12.12
74043;BMP280;62384;53.600;10.040;2023-03-31T10:00:12;54708.56;;;12.23
74043;BMP280;62384;53.600;10.040;2023-03-31T10:02:41;54831.59;;;12.25
74043;BMP280;62384;53.600;10.040;2023-03-31T10:05:25;55733.47;;;12.23
74043;BMP280;62384;53.600;10.040;2023-03-31T10:08:08;55573.47;;;12.35
74043;BMP280;62384;53.600;10.040;2023-03-31T10:10:35;55484.31;;;12.39
74043;BMP280;62384;53.600;10.040;2023-03-31T10:13:06;55120.72;;;12.35
74043;BMP280;62384;53.600;10.040;2023-03-31T10:15:36;55758.75;;;12.38
74043;BMP280;62384;53.600;10.040;2023-03-31T10:18:02;55901.88;;;12.38
74043;BMP280;62384;53.600;10.040;2023-03-31T10:20:33;55827.03;;;12.40
74043;BMP280;62384;53.600;10.040;2023-03-31T10:23:03;55795.81;;;12.44
74043;BMP280;62384;53.600;10.040;2023-03-31T10:25:31;56588.91;;;12.58
74043;BMP280;62384;53.600;10.040;2023-03-31T10:27:57;56247.00;;;12.61
74043;BMP280;62384;53.600;10.040;2023-03-31T10:30:27;57034.16;;;12.64
74043;BMP280;62384;53.600;10.040;2023-03-31T10:32:54;56271.34;;;12.42
74043;BMP280;62384;53.600;10.040;2023-03-31T10:35:25;55987.91;;;12.39
74043;BMP280;62384;53.600;10.040;2023-03-31T10:37:55;55327.16;;;12.38
74043;BMP280;62384;53.600;10.040;2023-03-31T10:40:26;55849.28;;;12.38
74043;BMP280;62384;53.600;10.040;2023-03-31T10:43:19;55773.16;;;12.46
74043;BMP280;62384;53.600;10.040;2023-03-31T10:45:50;56936.78;;;12.58
74043;BMP280;62384;53.600;10.040;2023-03-31T10:48:33;57020.84;;;12.57
74043;BMP280;62384;53.600;10.040;2023-03-31T10:53:40;57293.78;;;12.86
74043;BMP280;62384;53.600;10.040;2023-03-31T10:56:17;58101.78;;;12.81
74043;BMP280;62384;53.600;10.040;2023-03-31T11:01:32;57985.41;;;12.81
74043;BMP280;62384;53.600;10.040;2023-03-31T11:07:04;57246.31;;;12.57
74043;BMP280;62384;53.600;10.040;2023-03-31T11:09:55;56512.59;;;12.55
74043;BMP280;62384;53.600;10.040;2023-03-31T11:12:27;56735.13;;;12.39
74043;BMP280;62384;53.600;10.040;2023-03-31T11:18:10;55449.19;;;12.32
74043;BMP280;62384;53.600;10.040;2023-03-31T11:23:26;56599.31;;;12.54
74043;BMP280;62384;53.600;10.040;2023-03-31T11:26:00;56431.81;;;12.67
74043;BMP280;62384;53.600;10.040;2023-03-31T11:28:42;56543.22;;;12.73
74043;BMP280;62384;53.600;10.040;2023-03-31T11:31:26;56972.31;;;12.92
74043;BMP280;62384;53.600;10.040;2023-03-31T11:39:40;57182.97;;;12.51
74043;BMP280;62384;53.600;10.040;2023-03-31T11:42:24;57093.09;;;12.61
74043;BMP280;62384;53.600;10.040;2023-03-31T11:44:55;56888.88;;;12.68
74043;BMP280;62384;53.600;10.040;2023-03-31T11:47:25;56804.84;;;12.75
74043;BMP280;62384;53.600;10.040;2023-03-31T11:49:54;57328.38;;;12.76
74043;BMP280;62384;53.600;10.040;2023-03-31T11:52:29;56977.47;;;12.72
74043;BMP280;62384;53.600;10.040;2023-03-31T11:55:03;56789.66;;;12.57
74043;BMP280;62384;53.600;10.040;2023-03-31T11:57:39;57317.25;;;12.53
74043;BMP280;62384;53.600;10.040;2023-03-31T12:00:37;56757.59;;;12.47
74043;BMP280;62384;53.600;10.040;2023-03-31T12:03:18;57678.50;;;12.35
74043;BMP280;62384;53.600;10.040;2023-03-31T12:05:48;56694.84;;;12.18
74043;BMP280;62384;53.600;10.040;2023-03-31T12:10:57;54434.03;;;12.00
74043;BMP280;62384;53.600;10.040;2023-03-31T12:13:44;53791.06;;;11.97
74043;BMP280;62384;53.600;10.040;2023-03-31T12:16:22;53586.06;;;11.92
74043;BMP280;62384;53.600;10.040;2023-03-31T12:21:43;53380.41;;;11.90
74043;BMP280;62384;53.600;10.040;2023-03-31T12:24:12;53430.22;;;11.82
74043;BMP280;62384;53.600;10.040;2023-03-31T12:26:52;53650.91;;;11.77
74043;BMP280;62384;53.600;10.040;2023-03-31T12:29:29;53344.81;;;11.85
74043;BMP280;62384;53.600;10.040;2023-03-31T12:31:59;53562.94;;;11.86
74043;BMP280;62384;53.600;10.040;2023-03-31T12:34:27;53308.09;;;11.78
74043;BMP280;62384;53.600;10.040;2023-03-31T12:37:04;53096.06;;;11.74
74043;BMP280;62384;53.600;10.040;2023-03-31T12:39:56;52914.31;;;11.75
74043;BMP280;62384;53.600;10.040;2023-03-31T12:45:30;52881.41;;;11.63
74043;BMP280;62384;53.600;10.040;2023-03-31T12:50:55;52960.03;;;11.73
74043;BMP280;62384;53.600;10.040;2023-03-31T12:56:20;53247.88;;;11.58
74043;BMP280;62384;53.600;10.040;2023-03-31T12:58:46;53185.94;;;11.64
74043;BMP280;62384;53.600;10.040;2023-03-31T13:01:22;53137.94;;;11.60
74043;BMP280;62384;53.600;10.040;2023-03-31T13:04:08;53049.59;;;11.76
74043;BMP280;62384;53.600;10.040;2023-03-31T13:09:05;53493.44;;;11.92
74043;BMP280;62384;53.600;10.040;2023-03-31T13:11:41;53606.22;;;12.01
74043;BMP280;62384;53.600;10.040;2023-03-31T13:14:22;53924.25;;;12.02
74043;BMP280;62384;53.600;10.040;2023-03-31T13:16:49;54218.19;;;12.05
74043;BMP280;62384;53.600;10.040;2023-03-31T13:19:34;54250.81;;;12.27
74043;BMP280;62384;53.600;10.040;2023-03-31T13:22:02;55456.13;;;12.44
74043;BMP280;62384;53.600;10.040;2023-03-31T13:24:30;56813.88;;;12.86
74043;BMP280;62384;53.600;10.040;2023-03-31T13:26:57;57275.22;;;12.86
74043;BMP280;62384;53.600;10.040;2023-03-31T13:29:44;56738.97;;;12.89
74043;BMP280;62384;53.600;10.040;2023-03-31T13:32:23;56937.53;;;12.82
74043;BMP280;62384;53.600;10.040;2023-03-31T13:37:40;57612.84;;;12.83
74043;BMP280;62384;53.600;10.040;2023-03-31T13:45:32;57286.06;;;13.06
74043;BMP280;62384;53.600;10.040;2023-03-31T14:07:38;61692.03;;;13.69
74043;BMP280;62384;53.600;10.040;2023-03-31T14:12:47;60785.94;;;13.16
74043;BMP280;62384;53.600;10.040;2023-03-31T14:18:42;60207.84;;;13.06
74043;BMP280;62384;53.600;10.040;2023-03-31T14:21:39;60339.78;;;13.17
74043;BMP280;62384;53.600;10.040;2023-03-31T14:30:44;64210.94;;;13.66
74043;BMP280;62384;53.600;10.040;2023-03-31T14:33:27;63553.81;;;13.64
74043;BMP280;62384;53.600;10.040;2023-03-31T14:36:00;64879.34;;;13.54
74043;BMP280;62384;53.600;10.040;2023-03-31T14:38:26;65190.84;;;13.51
74043;BMP280;62384;53.600;10.040;2023-03-31T14:40:53;65716.97;;;13.44
74043;BMP280;62384;53.600;10.040;2023-03-31T14:43:25;65319.00;;;13.49
74043;BMP280;62384;53.600;10.040;2023-03-31T14:46:04;66134.81;;;13.44
74043;BMP280;62384;53.600;10.040;2023-03-31T14:48:49;65104.81;;;13.34
74043;BMP280;62384;53.600;10.040;2023-03-31T14:51:17;64789.63;;;13.33
74043;BMP280;62384;53.600;10.040;2023-03-31T14:53:43;64715.25;;;13.36
74043;BMP280;62384;53.600;10.040;2023-03-31T14:56:11;64568.84;;;13.44
74043;BMP280;62384;53.600;10.040;2023-03-31T14:58:41;64966.91;;;13.62
74043;BMP280;62384;53.600;10.040;2023-03-31T15:01:08;65444.59;;;13.66
74043;BMP280;62384;53.600;10.040;2023-03-31T15:03:39;66082.88;;;13.81
74043;BMP280;62384;53.600;10.040;2023-03-31T15:06:08;66587.22;;;14.14
74043;BMP280;62384;53.600;10.040;2023-03-31T15:08:34;67083.25;;;14.38
74043;BMP280;62384;53.600;10.040;2023-03-31T15:11:04;68170.72;;;14.71
74043;BMP280;62384;53.600;10.040;2023-03-31T15:16:30;68611.97;;;14.56
74043;BMP280;62384;53.600;10.040;2023-03-31T15:19:02;68182.03;;;14.34
74043;BMP280;62384;53.600;10.040;2023-03-31T15:21:30;67683.84;;;14.33
74043;BMP280;62384;53.600;10.040;2023-03-31T15:23:58;67099.47;;;14.22
74043;BMP280;62384;53.600;10.040;2023-03-31T15:26:30;67104.13;;;14.38
74043;BMP280;62384;53.600;10.040;2023-03-31T15:29:02;67416.97;;;14.17
74043;BMP280;62384;53.600;10.040;2023-03-31T15:31:28;67854.56;;;14.27
74043;BMP280;62384;53.600;10.040;2023-03-31T15:33:54;67982.13;;;13.87
74043;BMP280;62384;53.600;10.040;2023-03-31T15:36:20;66965.97;;;13.76
74043;BMP280;62384;53.600;10.040;2023-03-31T15:38:54;67205.88;;;13.70
74043;BMP280;62384;53.600;10.040;2023-03-31T15:41:20;67244.25;;;13.63
74043;BMP280;62384;53.600;10.040;2023-03-31T15:43:48;67074.50;;;13.59
74043;BMP280;62384;53.600;10.040;2023-03-31T15:46:25;67386.66;;;13.56
74043;BMP280;62384;53.600;10.040;2023-03-31T15:49:21;67552.47;;;13.57
74043;BMP280;62384;53.600;10.040;2023-03-31T15:51:47;66867.53;;;13.46
74043;BMP280;62384;53.600;10.040;2023-03-31T15:54:34;67584.84;;;13.44
74043;BMP280;62384;53.600;10.040;2023-03-31T15:57:02;67532.38;;;13.31
74043;BMP280;62384;53.600;10.040;2023-03-31T15:59:30;67357.78;;;13.27
74043;BMP280;62384;53.600;10.040;2023-03-31T16:01:57;67008.09;;;13.35
74043;BMP280;62384;53.600;10.040;2023-03-31T16:04:29;67494.72;;;13.36
74043;BMP280;62384;53.600;10.040;2023-03-31T16:07:02;67298.44;;;13.37
74043;BMP280;62384;53.600;10.040;2023-03-31T16:09:41;67554.53;;;13.27
74043;BMP280;62384;53.600;10.040;2023-03-31T16:14:58;67189.97;;;13.19
74043;BMP280;62384;53.600;10.040;2023-03-31T16:17:37;66330.59;;;13.18
74043;BMP280;62384;53.600;10.040;2023-03-31T16:20:08;67046.97;;;13.28
74043;BMP280;62384;53.600;10.040;2023-03-31T16:22:40;67546.38;;;13.29
74043;BMP280;62384;53.600;10.040;2023-03-31T16:28:36;67231.00;;;13.34
74043;BMP280;62384;53.600;10.040;2023-03-31T16:31:03;67850.59;;;13.32